sensor_id;sensor_type;location;lat;lon;timestamp;temperature;humidity
41722;DHT22;27407;24.142;-110.310;2024-03-08T00:00:15;27.50;62.60
41722;DHT22;27407;24.142;-110.310;2024-03-08T00:02:48;27.40;63.10
41722;DHT22;27407;24.142;-110.310;2024-03-08T00:05:16;27.20;64.40
41722;DHT22;27407;24.142;-110.310;2024-03-08T00:07:44;27.40;64.80
41722;DHT22;27407;24.142;-110.310;2024-03-08T00:10:12;27.40;64.30
41722;DHT22;27407;24.142;-110.310;2024-03-08T00:12:39;27.40;63.90
41722;DHT22;27407;24.142;-110.310;2024-03-08T00:15:15;27.40;63.30
41722;DHT22;27407;24.142;-110.310;2024-03-08T00:17:43;27.30;64.80
41722;DHT22;27407;24.142;-110.310;2024-03-08T00:20:10;27.10;65.00
41722;DHT22;27407;24.142;-110.310;2024-03-08T00:22:37;27.00;66.60
41722;DHT22;27407;24.142;-110.310;2024-03-08T00:25:05;27.20;65.80
41722;DHT22;27407;24.142;-110.310;2024-03-08T00:27:35;27.30;65.60
41722;DHT22;27407;24.142;-110.310;2024-03-08T00:30:02;27.40;66.10
41722;DHT22;27407;24.142;-110.310;2024-03-08T00:32:29;27.70;66.60
41722;DHT22;27407;24.142;-110.310;2024-03-08T00:34:58;27.30;67.80
41722;DHT22;27407;24.142;-110.310;2024-03-08T00:37:24;27.40;67.70
41722;DHT22;27407;24.142;-110.310;2024-03-08T00:39:54;27.20;68.50
41722;DHT22;27407;24.142;-110.310;2024-03-08T00:42:21;26.90;69.60
41722;DHT22;27407;24.142;-110.310;2024-03-08T00:44:48;26.80;70.20
41722;DHT22;27407;24.142;-110.310;2024-03-08T00:47:17;26.80;70.40
41722;DHT22;27407;24.142;-110.310;2024-03-08T00:49:44;26.70;70.80
41722;DHT22;27407;24.142;-110.310;2024-03-08T00:52:10;26.50;71.60
41722;DHT22;27407;24.142;-110.310;2024-03-08T00:54:37;26.20;72.40
41722;DHT22;27407;24.142;-110.310;2024-03-08T00:57:04;26.10;73.40
41722;DHT22;27407;24.142;-110.310;2024-03-08T00:59:32;26.10;76.60
41722;DHT22;27407;24.142;-110.310;2024-03-08T01:01:59;26.10;77.10
41722;DHT22;27407;24.142;-110.310;2024-03-08T01:04:26;25.90;77.70
41722;DHT22;27407;24.142;-110.310;2024-03-08T01:06:59;25.60;77.80
41722;DHT22;27407;24.142;-110.310;2024-03-08T01:09:26;25.50;77.90
41722;DHT22;27407;24.142;-110.310;2024-03-08T01:11:54;25.20;79.10
41722;DHT22;27407;24.142;-110.310;2024-03-08T01:14:21;25.10;81.00
41722;DHT22;27407;24.142;-110.310;2024-03-08T01:16:49;24.90;81.20
41722;DHT22;27407;24.142;-110.310;2024-03-08T01:19:15;24.70;80.10
41722;DHT22;27407;24.142;-110.310;2024-03-08T01:21:42;24.70;81.20
41722;DHT22;27407;24.142;-110.310;2024-03-08T01:24:09;24.60;83.10
41722;DHT22;27407;24.142;-110.310;2024-03-08T01:26:36;24.50;81.80
41722;DHT22;27407;24.142;-110.310;2024-03-08T01:29:11;24.50;82.80
41722;DHT22;27407;24.142;-110.310;2024-03-08T01:31:37;24.40;84.80
41722;DHT22;27407;24.142;-110.310;2024-03-08T01:34:04;24.40;85.60
41722;DHT22;27407;24.142;-110.310;2024-03-08T01:36:31;24.30;85.90
41722;DHT22;27407;24.142;-110.310;2024-03-08T01:38:57;24.20;85.90
41722;DHT22;27407;24.142;-110.310;2024-03-08T01:41:24;24.10;86.90
41722;DHT22;27407;24.142;-110.310;2024-03-08T01:43:50;24.00;87.10
41722;DHT22;27407;24.142;-110.310;2024-03-08T01:46:20;24.00;87.90
41722;DHT22;27407;24.142;-110.310;2024-03-08T01:48:51;23.90;88.00
41722;DHT22;27407;24.142;-110.310;2024-03-08T01:51:19;23.80;88.60
41722;DHT22;27407;24.142;-110.310;2024-03-08T01:53:46;23.80;90.00
41722;DHT22;27407;24.142;-110.310;2024-03-08T01:56:15;23.70;90.80
41722;DHT22;27407;24.142;-110.310;2024-03-08T01:58:43;23.60;90.80
41722;DHT22;27407;24.142;-110.310;2024-03-08T02:01:12;23.60;90.90
41722;DHT22;27407;24.142;-110.310;2024-03-08T02:03:42;23.50;91.00
41722;DHT22;27407;24.142;-110.310;2024-03-08T02:06:12;23.50;92.40
41722;DHT22;27407;24.142;-110.310;2024-03-08T02:08:45;23.50;96.70
41722;DHT22;27407;24.142;-110.310;2024-03-08T02:11:12;23.40;99.90
41722;DHT22;27407;24.142;-110.310;2024-03-08T02:13:39;23.40;99.90
41722;DHT22;27407;24.142;-110.310;2024-03-08T02:16:06;23.40;99.90
41722;DHT22;27407;24.142;-110.310;2024-03-08T02:18:34;23.50;99.90
41722;DHT22;27407;24.142;-110.310;2024-03-08T02:21:02;23.40;99.90
41722;DHT22;27407;24.142;-110.310;2024-03-08T02:23:29;23.40;99.90
41722;DHT22;27407;24.142;-110.310;2024-03-08T02:25:57;23.40;99.90
41722;DHT22;27407;24.142;-110.310;2024-03-08T02:28:24;23.30;99.90
41722;DHT22;27407;24.142;-110.310;2024-03-08T02:30:55;23.20;99.90
41722;DHT22;27407;24.142;-110.310;2024-03-08T02:33:22;23.30;99.90
41722;DHT22;27407;24.142;-110.310;2024-03-08T02:35:49;23.20;99.90
41722;DHT22;27407;24.142;-110.310;2024-03-08T02:38:21;22.90;99.90
41722;DHT22;27407;24.142;-110.310;2024-03-08T02:40:51;22.70;99.90
41722;DHT22;27407;24.142;-110.310;2024-03-08T02:43:20;22.70;99.90
41722;DHT22;27407;24.142;-110.310;2024-03-08T02:45:48;22.60;99.90
41722;DHT22;27407;24.142;-110.310;2024-03-08T02:48:16;22.60;99.90
41722;DHT22;27407;24.142;-110.310;2024-03-08T02:50:42;22.60;99.90
41722;DHT22;27407;24.142;-110.310;2024-03-08T02:53:11;22.60;99.90
41722;DHT22;27407;24.142;-110.310;2024-03-08T02:55:39;22.60;99.90
41722;DHT22;27407;24.142;-110.310;2024-03-08T02:58:07;22.50;99.90
41722;DHT22;27407;24.142;-110.310;2024-03-08T03:00:38;22.50;99.90
41722;DHT22;27407;24.142;-110.310;2024-03-08T03:03:05;22.50;99.90
41722;DHT22;27407;24.142;-110.310;2024-03-08T03:05:32;22.40;99.90
41722;DHT22;27407;24.142;-110.310;2024-03-08T03:08:00;22.40;99.90
41722;DHT22;27407;24.142;-110.310;2024-03-08T03:10:26;22.40;99.90
41722;DHT22;27407;24.142;-110.310;2024-03-08T03:12:53;22.30;99.90
41722;DHT22;27407;24.142;-110.310;2024-03-08T03:15:20;22.20;99.90
41722;DHT22;27407;24.142;-110.310;2024-03-08T03:17:48;22.10;99.90
41722;DHT22;27407;24.142;-110.310;2024-03-08T03:20:15;22.00;99.90
41722;DHT22;27407;24.142;-110.310;2024-03-08T03:22:49;22.00;99.90
41722;DHT22;27407;24.142;-110.310;2024-03-08T03:25:19;21.90;99.90
41722;DHT22;27407;24.142;-110.310;2024-03-08T03:27:55;21.90;99.90
41722;DHT22;27407;24.142;-110.310;2024-03-08T03:30:23;22.00;99.90
41722;DHT22;27407;24.142;-110.310;2024-03-08T03:32:53;21.90;99.90
41722;DHT22;27407;24.142;-110.310;2024-03-08T03:35:23;21.80;99.90
41722;DHT22;27407;24.142;-110.310;2024-03-08T03:37:50;21.70;99.90
41722;DHT22;27407;24.142;-110.310;2024-03-08T03:40:38;21.70;99.90
41722;DHT22;27407;24.142;-110.310;2024-03-08T03:43:08;21.70;99.90
41722;DHT22;27407;24.142;-110.310;2024-03-08T03:45:36;21.60;99.90
41722;DHT22;27407;24.142;-110.310;2024-03-08T03:48:04;21.50;99.90
41722;DHT22;27407;24.142;-110.310;2024-03-08T03:50:30;21.40;99.90
41722;DHT22;27407;24.142;-110.310;2024-03-08T03:53:00;21.40;99.90
41722;DHT22;27407;24.142;-110.310;2024-03-08T03:55:28;21.40;99.90
41722;DHT22;27407;24.142;-110.310;2024-03-08T03:57:55;21.30;99.90
41722;DHT22;27407;24.142;-110.310;2024-03-08T04:00:21;21.40;99.90
41722;DHT22;27407;24.142;-110.310;2024-03-08T04:02:48;21.20;99.90
41722;DHT22;27407;24.142;-110.310;2024-03-08T04:05:15;21.20;99.90
41722;DHT22;27407;24.142;-110.310;2024-03-08T04:07:41;21.20;99.90
41722;DHT22;27407;24.142;-110.310;2024-03-08T04:10:09;21.20;99.90
41722;DHT22;27407;24.142;-110.310;2024-03-08T04:12:37;21.20;99.90
41722;DHT22;27407;24.142;-110.310;2024-03-08T04:15:05;21.20;99.90
41722;DHT22;27407;24.142;-110.310;2024-03-08T04:17:37;21.20;99.90
41722;DHT22;27407;24.142;-110.310;2024-03-08T04:20:04;21.00;99.90
41722;DHT22;27407;24.142;-110.310;2024-03-08T04:22:38;20.90;99.90
41722;DHT22;27407;24.142;-110.310;2024-03-08T04:25:06;20.80;99.90
41722;DHT22;27407;24.142;-110.310;2024-03-08T04:27:33;20.60;99.90
41722;DHT22;27407;24.142;-110.310;2024-03-08T04:30:01;20.70;99.90
41722;DHT22;27407;24.142;-110.310;2024-03-08T04:32:27;20.60;99.90
41722;DHT22;27407;24.142;-110.310;2024-03-08T04:34:55;20.50;99.90
41722;DHT22;27407;24.142;-110.310;2024-03-08T04:37:22;20.40;99.90
41722;DHT22;27407;24.142;-110.310;2024-03-08T04:39:49;20.40;99.90
41722;DHT22;27407;24.142;-110.310;2024-03-08T04:42:17;20.30;99.90
41722;DHT22;27407;24.142;-110.310;2024-03-08T04:44:44;20.30;99.90
41722;DHT22;27407;24.142;-110.310;2024-03-08T04:47:10;20.30;99.90
41722;DHT22;27407;24.142;-110.310;2024-03-08T04:49:37;20.30;99.90
41722;DHT22;27407;24.142;-110.310;2024-03-08T04:52:04;20.20;99.90
41722;DHT22;27407;24.142;-110.310;2024-03-08T04:54:33;20.10;99.90
41722;DHT22;27407;24.142;-110.310;2024-03-08T04:57:00;20.10;99.90
41722;DHT22;27407;24.142;-110.310;2024-03-08T04:59:27;20.20;99.90
41722;DHT22;27407;24.142;-110.310;2024-03-08T05:01:54;20.10;99.90
41722;DHT22;27407;24.142;-110.310;2024-03-08T05:04:20;20.10;99.90
41722;DHT22;27407;24.142;-110.310;2024-03-08T05:06:47;20.00;99.90
41722;DHT22;27407;24.142;-110.310;2024-03-08T05:09:14;20.00;99.90
41722;DHT22;27407;24.142;-110.310;2024-03-08T05:11:43;19.90;99.90
41722;DHT22;27407;24.142;-110.310;2024-03-08T05:14:10;19.80;99.90
41722;DHT22;27407;24.142;-110.310;2024-03-08T05:16:37;19.80;99.90
41722;DHT22;27407;24.142;-110.310;2024-03-08T05:19:03;19.80;99.90
41722;DHT22;27407;24.142;-110.310;2024-03-08T05:21:30;19.80;99.90
41722;DHT22;27407;24.142;-110.310;2024-03-08T05:23:57;19.80;99.90
41722;DHT22;27407;24.142;-110.310;2024-03-08T05:26:23;19.70;99.90
41722;DHT22;27407;24.142;-110.310;2024-03-08T05:28:50;19.70;99.90
41722;DHT22;27407;24.142;-110.310;2024-03-08T05:31:22;19.80;99.90
41722;DHT22;27407;24.142;-110.310;2024-03-08T05:33:49;19.80;99.90
41722;DHT22;27407;24.142;-110.310;2024-03-08T05:36:16;19.70;99.90
41722;DHT22;27407;24.142;-110.310;2024-03-08T05:38:43;19.60;99.90
41722;DHT22;27407;24.142;-110.310;2024-03-08T05:41:10;19.60;99.90
41722;DHT22;27407;24.142;-110.310;2024-03-08T05:43:43;19.60;99.90
41722;DHT22;27407;24.142;-110.310;2024-03-08T05:46:10;19.40;99.90
41722;DHT22;27407;24.142;-110.310;2024-03-08T05:48:38;19.40;99.90
41722;DHT22;27407;24.142;-110.310;2024-03-08T05:51:04;19.40;99.90
41722;DHT22;27407;24.142;-110.310;2024-03-08T05:53:31;19.40;99.90
41722;DHT22;27407;24.142;-110.310;2024-03-08T05:55:58;19.40;99.90
41722;DHT22;27407;24.142;-110.310;2024-03-08T05:58:25;19.30;99.90
41722;DHT22;27407;24.142;-110.310;2024-03-08T06:00:52;19.30;99.90
41722;DHT22;27407;24.142;-110.310;2024-03-08T06:03:18;19.20;99.90
41722;DHT22;27407;24.142;-110.310;2024-03-08T06:05:48;19.10;99.90
41722;DHT22;27407;24.142;-110.310;2024-03-08T06:08:15;19.10;99.90
41722;DHT22;27407;24.142;-110.310;2024-03-08T06:10:42;19.10;99.90
41722;DHT22;27407;24.142;-110.310;2024-03-08T06:13:09;19.10;99.90
41722;DHT22;27407;24.142;-110.310;2024-03-08T06:15:38;19.10;99.90
41722;DHT22;27407;24.142;-110.310;2024-03-08T06:18:05;19.10;99.90
41722;DHT22;27407;24.142;-110.310;2024-03-08T06:20:32;19.10;99.90
41722;DHT22;27407;24.142;-110.310;2024-03-08T06:22:58;19.00;99.90
41722;DHT22;27407;24.142;-110.310;2024-03-08T06:25:25;19.00;99.90
41722;DHT22;27407;24.142;-110.310;2024-03-08T06:27:52;18.90;99.90
41722;DHT22;27407;24.142;-110.310;2024-03-08T06:30:19;18.90;99.90
41722;DHT22;27407;24.142;-110.310;2024-03-08T06:32:47;18.80;99.90
41722;DHT22;27407;24.142;-110.310;2024-03-08T06:35:14;18.60;99.90
41722;DHT22;27407;24.142;-110.310;2024-03-08T06:37:41;18.60;99.90
41722;DHT22;27407;24.142;-110.310;2024-03-08T06:40:10;18.60;99.90
41722;DHT22;27407;24.142;-110.310;2024-03-08T06:42:40;18.50;99.90
41722;DHT22;27407;24.142;-110.310;2024-03-08T06:45:07;18.50;99.90
41722;DHT22;27407;24.142;-110.310;2024-03-08T06:47:35;18.50;99.90
41722;DHT22;27407;24.142;-110.310;2024-03-08T06:50:02;18.50;99.90
41722;DHT22;27407;24.142;-110.310;2024-03-08T06:52:30;18.50;99.90
41722;DHT22;27407;24.142;-110.310;2024-03-08T06:54:56;18.50;99.90
41722;DHT22;27407;24.142;-110.310;2024-03-08T06:57:23;18.50;99.90
41722;DHT22;27407;24.142;-110.310;2024-03-08T06:59:50;18.50;99.90
41722;DHT22;27407;24.142;-110.310;2024-03-08T07:02:18;18.50;99.90
41722;DHT22;27407;24.142;-110.310;2024-03-08T07:04:44;18.50;99.90
41722;DHT22;27407;24.142;-110.310;2024-03-08T07:07:11;18.40;99.90
41722;DHT22;27407;24.142;-110.310;2024-03-08T07:09:38;18.30;99.90
41722;DHT22;27407;24.142;-110.310;2024-03-08T07:12:05;18.10;99.90
41722;DHT22;27407;24.142;-110.310;2024-03-08T07:14:32;18.10;99.90
41722;DHT22;27407;24.142;-110.310;2024-03-08T07:16:59;18.00;99.90
41722;DHT22;27407;24.142;-110.310;2024-03-08T07:19:25;18.00;99.90
41722;DHT22;27407;24.142;-110.310;2024-03-08T07:21:52;18.10;99.90
41722;DHT22;27407;24.142;-110.310;2024-03-08T07:24:18;18.10;99.90
41722;DHT22;27407;24.142;-110.310;2024-03-08T07:26:48;18.10;99.90
41722;DHT22;27407;24.142;-110.310;2024-03-08T07:29:16;18.00;99.90
41722;DHT22;27407;24.142;-110.310;2024-03-08T07:31:42;18.00;99.90
41722;DHT22;27407;24.142;-110.310;2024-03-08T07:34:28;18.00;99.90
41722;DHT22;27407;24.142;-110.310;2024-03-08T07:36:58;17.90;99.90
41722;DHT22;27407;24.142;-110.310;2024-03-08T07:39:25;17.90;99.90
41722;DHT22;27407;24.142;-110.310;2024-03-08T07:41:52;17.90;99.90
41722;DHT22;27407;24.142;-110.310;2024-03-08T07:44:21;18.00;99.90
41722;DHT22;27407;24.142;-110.310;2024-03-08T07:46:47;18.00;99.90
41722;DHT22;27407;24.142;-110.310;2024-03-08T07:49:14;18.00;99.90
41722;DHT22;27407;24.142;-110.310;2024-03-08T07:51:41;18.00;99.90
41722;DHT22;27407;24.142;-110.310;2024-03-08T07:54:08;17.90;99.90
41722;DHT22;27407;24.142;-110.310;2024-03-08T07:56:35;17.90;99.90
41722;DHT22;27407;24.142;-110.310;2024-03-08T07:59:03;17.90;99.90
41722;DHT22;27407;24.142;-110.310;2024-03-08T08:01:32;17.80;99.90
41722;DHT22;27407;24.142;-110.310;2024-03-08T08:04:00;17.80;99.90
41722;DHT22;27407;24.142;-110.310;2024-03-08T08:06:29;17.80;99.90
41722;DHT22;27407;24.142;-110.310;2024-03-08T08:08:59;17.80;99.90
41722;DHT22;27407;24.142;-110.310;2024-03-08T08:11:29;17.80;99.90
41722;DHT22;27407;24.142;-110.310;2024-03-08T08:13:56;17.70;99.90
41722;DHT22;27407;24.142;-110.310;2024-03-08T08:16:26;17.70;99.90
41722;DHT22;27407;24.142;-110.310;2024-03-08T08:18:53;17.70;99.90
41722;DHT22;27407;24.142;-110.310;2024-03-08T08:21:20;17.50;99.90
41722;DHT22;27407;24.142;-110.310;2024-03-08T08:23:48;17.40;99.90
41722;DHT22;27407;24.142;-110.310;2024-03-08T08:26:14;17.10;99.90
41722;DHT22;27407;24.142;-110.310;2024-03-08T08:28:41;17.10;99.90
41722;DHT22;27407;24.142;-110.310;2024-03-08T08:31:09;17.10;99.90
41722;DHT22;27407;24.142;-110.310;2024-03-08T08:33:36;17.10;99.90
41722;DHT22;27407;24.142;-110.310;2024-03-08T08:36:02;17.10;99.90
41722;DHT22;27407;24.142;-110.310;2024-03-08T08:38:29;17.10;99.90
41722;DHT22;27407;24.142;-110.310;2024-03-08T08:40:56;17.10;99.90
41722;DHT22;27407;24.142;-110.310;2024-03-08T08:43:22;17.00;99.90
41722;DHT22;27407;24.142;-110.310;2024-03-08T08:45:51;17.00;99.90
41722;DHT22;27407;24.142;-110.310;2024-03-08T08:48:20;16.80;99.90
41722;DHT22;27407;24.142;-110.310;2024-03-08T08:50:47;16.60;99.90
41722;DHT22;27407;24.142;-110.310;2024-03-08T08:53:14;16.60;99.90
41722;DHT22;27407;24.142;-110.310;2024-03-08T08:55:41;16.50;99.90
41722;DHT22;27407;24.142;-110.310;2024-03-08T08:58:07;16.40;99.90
41722;DHT22;27407;24.142;-110.310;2024-03-08T09:00:34;16.40;99.90
41722;DHT22;27407;24.142;-110.310;2024-03-08T09:03:01;16.30;99.90
41722;DHT22;27407;24.142;-110.310;2024-03-08T09:05:28;16.30;99.90
41722;DHT22;27407;24.142;-110.310;2024-03-08T09:07:55;16.20;99.90
41722;DHT22;27407;24.142;-110.310;2024-03-08T09:10:22;16.20;99.90
41722;DHT22;27407;24.142;-110.310;2024-03-08T09:12:49;16.20;99.90
41722;DHT22;27407;24.142;-110.310;2024-03-08T09:15:16;16.20;99.90
41722;DHT22;27407;24.142;-110.310;2024-03-08T09:17:47;16.10;99.90
41722;DHT22;27407;24.142;-110.310;2024-03-08T09:20:14;15.90;99.90
41722;DHT22;27407;24.142;-110.310;2024-03-08T09:22:44;15.80;99.90
41722;DHT22;27407;24.142;-110.310;2024-03-08T09:25:12;15.70;99.90
41722;DHT22;27407;24.142;-110.310;2024-03-08T09:27:38;15.70;99.90
41722;DHT22;27407;24.142;-110.310;2024-03-08T09:30:06;15.70;99.90
41722;DHT22;27407;24.142;-110.310;2024-03-08T09:32:33;15.70;99.90
41722;DHT22;27407;24.142;-110.310;2024-03-08T09:34:59;15.70;99.90
41722;DHT22;27407;24.142;-110.310;2024-03-08T09:37:27;15.70;99.90
41722;DHT22;27407;24.142;-110.310;2024-03-08T09:39:54;15.70;99.90
41722;DHT22;27407;24.142;-110.310;2024-03-08T09:42:20;15.60;99.90
41722;DHT22;27407;24.142;-110.310;2024-03-08T09:44:47;15.70;99.90
41722;DHT22;27407;24.142;-110.310;2024-03-08T09:47:15;15.70;99.90
41722;DHT22;27407;24.142;-110.310;2024-03-08T09:49:42;15.60;99.90
41722;DHT22;27407;24.142;-110.310;2024-03-08T09:52:10;15.60;99.90
41722;DHT22;27407;24.142;-110.310;2024-03-08T09:54:38;15.60;99.90
41722;DHT22;27407;24.142;-110.310;2024-03-08T09:57:07;15.60;99.90
41722;DHT22;27407;24.142;-110.310;2024-03-08T09:59:36;15.60;99.90
41722;DHT22;27407;24.142;-110.310;2024-03-08T10:02:03;15.70;99.90
41722;DHT22;27407;24.142;-110.310;2024-03-08T10:04:30;15.60;99.90
41722;DHT22;27407;24.142;-110.310;2024-03-08T10:07:01;15.70;99.90
41722;DHT22;27407;24.142;-110.310;2024-03-08T10:09:28;15.70;99.90
41722;DHT22;27407;24.142;-110.310;2024-03-08T10:11:57;15.70;99.90
41722;DHT22;27407;24.142;-110.310;2024-03-08T10:14:25;15.80;99.90
41722;DHT22;27407;24.142;-110.310;2024-03-08T10:16:54;15.70;99.90
41722;DHT22;27407;24.142;-110.310;2024-03-08T10:19:26;15.70;99.90
41722;DHT22;27407;24.142;-110.310;2024-03-08T10:21:55;15.60;99.90
41722;DHT22;27407;24.142;-110.310;2024-03-08T10:24:24;15.60;99.90
41722;DHT22;27407;24.142;-110.310;2024-03-08T10:27:01;15.60;99.90
41722;DHT22;27407;24.142;-110.310;2024-03-08T10:29:33;15.60;99.90
41722;DHT22;27407;24.142;-110.310;2024-03-08T10:32:00;15.50;99.90
41722;DHT22;27407;24.142;-110.310;2024-03-08T10:34:27;15.30;99.90
41722;DHT22;27407;24.142;-110.310;2024-03-08T10:37:00;15.30;99.90
41722;DHT22;27407;24.142;-110.310;2024-03-08T10:39:34;15.30;99.90
41722;DHT22;27407;24.142;-110.310;2024-03-08T10:42:04;15.10;99.90
41722;DHT22;27407;24.142;-110.310;2024-03-08T10:47:13;15.00;99.90
41722;DHT22;27407;24.142;-110.310;2024-03-08T10:49:54;14.90;99.90
41722;DHT22;27407;24.142;-110.310;2024-03-08T10:52:22;14.90;99.90
41722;DHT22;27407;24.142;-110.310;2024-03-08T10:54:49;14.80;99.90
41722;DHT22;27407;24.142;-110.310;2024-03-08T10:57:18;14.80;99.90
41722;DHT22;27407;24.142;-110.310;2024-03-08T10:59:50;14.80;99.90
41722;DHT22;27407;24.142;-110.310;2024-03-08T11:02:18;14.80;99.90
41722;DHT22;27407;24.142;-110.310;2024-03-08T11:04:50;14.80;99.90
41722;DHT22;27407;24.142;-110.310;2024-03-08T11:07:17;14.70;99.90
41722;DHT22;27407;24.142;-110.310;2024-03-08T11:09:50;14.60;99.90
41722;DHT22;27407;24.142;-110.310;2024-03-08T11:15:02;14.70;99.90
41722;DHT22;27407;24.142;-110.310;2024-03-08T11:20:17;14.60;99.90
41722;DHT22;27407;24.142;-110.310;2024-03-08T11:22:54;14.50;99.90
41722;DHT22;27407;24.142;-110.310;2024-03-08T11:28:10;14.40;99.90
41722;DHT22;27407;24.142;-110.310;2024-03-08T11:33:30;14.40;99.90
41722;DHT22;27407;24.142;-110.310;2024-03-08T11:36:25;14.40;99.90
41722;DHT22;27407;24.142;-110.310;2024-03-08T11:38:53;14.30;99.90
41722;DHT22;27407;24.142;-110.310;2024-03-08T11:41:34;14.30;99.90
41722;DHT22;27407;24.142;-110.310;2024-03-08T11:44:05;14.20;99.90
41722;DHT22;27407;24.142;-110.310;2024-03-08T11:46:34;14.20;99.90
41722;DHT22;27407;24.142;-110.310;2024-03-08T11:49:08;14.20;99.90
41722;DHT22;27407;24.142;-110.310;2024-03-08T11:51:35;14.10;99.90
41722;DHT22;27407;24.142;-110.310;2024-03-08T11:54:02;14.10;99.90
41722;DHT22;27407;24.142;-110.310;2024-03-08T11:56:32;14.10;99.90
41722;DHT22;27407;24.142;-110.310;2024-03-08T11:59:01;14.00;99.90
41722;DHT22;27407;24.142;-110.310;2024-03-08T12:01:33;14.00;99.90
41722;DHT22;27407;24.142;-110.310;2024-03-08T12:04:03;14.00;99.90
41722;DHT22;27407;24.142;-110.310;2024-03-08T12:06:39;14.00;99.90
41722;DHT22;27407;24.142;-110.310;2024-03-08T12:09:15;14.00;99.90
41722;DHT22;27407;24.142;-110.310;2024-03-08T12:11:48;14.00;99.90
41722;DHT22;27407;24.142;-110.310;2024-03-08T12:14:15;14.00;99.90
41722;DHT22;27407;24.142;-110.310;2024-03-08T12:16:42;13.90;99.90
41722;DHT22;27407;24.142;-110.310;2024-03-08T12:19:14;13.80;99.90
41722;DHT22;27407;24.142;-110.310;2024-03-08T12:21:43;13.80;99.90
41722;DHT22;27407;24.142;-110.310;2024-03-08T12:24:16;13.90;99.90
41722;DHT22;27407;24.142;-110.310;2024-03-08T12:26:48;13.90;99.90
41722;DHT22;27407;24.142;-110.310;2024-03-08T12:29:18;13.80;99.90
41722;DHT22;27407;24.142;-110.310;2024-03-08T12:31:56;13.80;99.90
41722;DHT22;27407;24.142;-110.310;2024-03-08T12:34:33;13.80;99.90
41722;DHT22;27407;24.142;-110.310;2024-03-08T12:37:00;13.80;99.90
41722;DHT22;27407;24.142;-110.310;2024-03-08T12:39:27;13.80;99.90
41722;DHT22;27407;24.142;-110.310;2024-03-08T12:41:54;13.70;99.90
41722;DHT22;27407;24.142;-110.310;2024-03-08T12:44:25;13.70;99.90
41722;DHT22;27407;24.142;-110.310;2024-03-08T12:46:54;13.70;99.90
41722;DHT22;27407;24.142;-110.310;2024-03-08T12:49:20;13.70;99.90
41722;DHT22;27407;24.142;-110.310;2024-03-08T12:51:51;13.60;99.90
41722;DHT22;27407;24.142;-110.310;2024-03-08T12:54:21;13.60;99.90
41722;DHT22;27407;24.142;-110.310;2024-03-08T12:56:53;13.60;99.90
41722;DHT22;27407;24.142;-110.310;2024-03-08T12:59:22;13.60;99.90
41722;DHT22;27407;24.142;-110.310;2024-03-08T13:01:49;13.60;99.90
41722;DHT22;27407;24.142;-110.310;2024-03-08T13:04:20;13.50;99.90
41722;DHT22;27407;24.142;-110.310;2024-03-08T13:06:50;13.40;99.90
41722;DHT22;27407;24.142;-110.310;2024-03-08T13:09:25;13.20;99.90
41722;DHT22;27407;24.142;-110.310;2024-03-08T13:11:59;13.10;99.90
41722;DHT22;27407;24.142;-110.310;2024-03-08T13:14:29;13.10;99.90
41722;DHT22;27407;24.142;-110.310;2024-03-08T13:16:58;13.00;99.90
41722;DHT22;27407;24.142;-110.310;2024-03-08T13:19:33;13.00;99.90
41722;DHT22;27407;24.142;-110.310;2024-03-08T13:22:22;13.00;99.90
41722;DHT22;27407;24.142;-110.310;2024-03-08T13:24:52;12.80;99.90
41722;DHT22;27407;24.142;-110.310;2024-03-08T13:27:21;12.80;99.90
41722;DHT22;27407;24.142;-110.310;2024-03-08T13:29:59;12.70;99.90
41722;DHT22;27407;24.142;-110.310;2024-03-08T13:32:29;12.50;99.90
41722;DHT22;27407;24.142;-110.310;2024-03-08T13:35:02;12.40;99.90
41722;DHT22;27407;24.142;-110.310;2024-03-08T13:37:39;12.40;99.90
41722;DHT22;27407;24.142;-110.310;2024-03-08T13:40:10;12.40;99.90
41722;DHT22;27407;24.142;-110.310;2024-03-08T13:42:51;12.20;99.90
41722;DHT22;27407;24.142;-110.310;2024-03-08T13:45:18;12.20;99.90
41722;DHT22;27407;24.142;-110.310;2024-03-08T13:47:50;12.10;99.90
41722;DHT22;27407;24.142;-110.310;2024-03-08T13:50:23;12.10;99.90
41722;DHT22;27407;24.142;-110.310;2024-03-08T13:52:52;12.10;99.90
41722;DHT22;27407;24.142;-110.310;2024-03-08T13:55:20;12.10;99.90
41722;DHT22;27407;24.142;-110.310;2024-03-08T13:57:57;12.20;99.90
41722;DHT22;27407;24.142;-110.310;2024-03-08T14:00:25;12.40;99.90
41722;DHT22;27407;24.142;-110.310;2024-03-08T14:02:59;12.50;99.90
41722;DHT22;27407;24.142;-110.310;2024-03-08T14:05:25;12.60;99.90
41722;DHT22;27407;24.142;-110.310;2024-03-08T14:07:52;12.70;99.90
41722;DHT22;27407;24.142;-110.310;2024-03-08T14:10:20;12.80;99.90
41722;DHT22;27407;24.142;-110.310;2024-03-08T14:12:48;12.90;99.90
41722;DHT22;27407;24.142;-110.310;2024-03-08T14:15:16;13.00;99.90
41722;DHT22;27407;24.142;-110.310;2024-03-08T14:17:43;13.10;99.90
41722;DHT22;27407;24.142;-110.310;2024-03-08T14:20:12;13.10;99.90
41722;DHT22;27407;24.142;-110.310;2024-03-08T14:22:39;13.20;99.90
41722;DHT22;27407;24.142;-110.310;2024-03-08T14:25:09;13.20;99.90
41722;DHT22;27407;24.142;-110.310;2024-03-08T14:27:44;13.30;99.90
41722;DHT22;27407;24.142;-110.310;2024-03-08T14:30:12;13.50;99.90
41722;DHT22;27407;24.142;-110.310;2024-03-08T14:32:40;13.60;99.90
41722;DHT22;27407;24.142;-110.310;2024-03-08T14:35:07;13.80;99.90
41722;DHT22;27407;24.142;-110.310;2024-03-08T14:37:34;13.90;99.90
41722;DHT22;27407;24.142;-110.310;2024-03-08T14:40:01;14.00;99.90
41722;DHT22;27407;24.142;-110.310;2024-03-08T14:42:37;14.10;99.90
41722;DHT22;27407;24.142;-110.310;2024-03-08T14:45:16;14.20;99.90
41722;DHT22;27407;24.142;-110.310;2024-03-08T14:47:47;14.40;99.90
41722;DHT22;27407;24.142;-110.310;2024-03-08T14:50:21;14.50;99.90
41722;DHT22;27407;24.142;-110.310;2024-03-08T14:52:51;14.50;99.90
41722;DHT22;27407;24.142;-110.310;2024-03-08T14:55:28;14.50;99.90
41722;DHT22;27407;24.142;-110.310;2024-03-08T14:57:57;14.60;99.90
41722;DHT22;27407;24.142;-110.310;2024-03-08T15:00:25;14.70;99.90
41722;DHT22;27407;24.142;-110.310;2024-03-08T15:03:06;14.90;99.90
41722;DHT22;27407;24.142;-110.310;2024-03-08T15:05:36;15.10;99.90
41722;DHT22;27407;24.142;-110.310;2024-03-08T15:08:08;15.20;99.90
41722;DHT22;27407;24.142;-110.310;2024-03-08T15:10:47;15.30;99.90